3PA1 weather

Public forecast

Using degrees Fahrenheit for public forecast. Weather courtesy of forecast.io.

Closest aviation weather report (METAR) to Navarro Airport

Closest report is Pennridge Airport, 2.4 nm (4.4 km) ENE. Retrieved 2020/08/14 10:35 UTC (4 minutes ago):

KCKZ 141035Z AUTO 05003KT 5SM BR FEW009 SCT019 BKN034 20/20 A3005 RMK AO2

Closest aviation forecast (TAF) to Navarro Airport

Forecast is more than 6 hours old.

Closest forecast is Lehigh Valley International Airport, 17.4 nm (32.3 km) NNW. Retrieved 2020-08-14 00:22 UTC (10 hours ago):

TAF KABE 132320Z 1400/1424 07004KT P6SM SCT035 BKN200 FM140200 VRB02KT P6SM SCT200 FM140900 00000KT 4SM BR SCT010 FM141200 06005KT P6SM SCT040